Hunter Army Air Field
KSVN : now visible

Airfield :











YOU CAN JOIN US ON...

 
LOGIN :

Register | Disclaimer

   EN    FR    IT 

 









Legend :    VFR   Marginal VFR   IFR   Intensive IFR   Very Intensive IFR
Visi :
Ceiling :
>= 8 km
>= 3000ft
5 to 8 km
1000 to 3000 ft
1500m to 5 km
500 to 1000 ft
800 to 1500m
200 to 500 ft
< 800m
< 200 ft
Symbols :   Thunderstorms  Fog  Heavy snow  Heavy precipitations  Wind > 20 kt







- Airport Elevation : 41 ft


KSVN - Hunter Army Air Field

CURRENT METAR :
  • 161556Z AUTO 00000KT 10SM CLR 34/22 A3011 RMK AO2 SLP199 T03420222 $

EXPIRED METARs :
  • 161456Z AUTO 31006KT 10SM CLR 33/23 A3011 RMK AO2 SLP199 T03310234 52007 $
  • 161356Z AUTO 36004KT 10SM CLR 31/24 A3010 RMK AO2 SLP195 T03080237 $

TAF TAF KSVN
Valid from the 16 at 12:00 until the 17 at 18:00 UTC


161200Z 1612/1718 17006KT 9999 FEW250 QNH3001INS
BECMG 1616/1617 18012KT 9999 FEW050 QNH3005INS
BECMG 1700/1701 22006KT 9999 SCT040 QNH3008INS
BECMG 1706/1707 23009KT 9999 FEW040 SCT200 QNH3010INS TX36/1621Z TN25/1711Z
KZJX FIR / North America



MET'MAP, your aeronautical weather chart ! - Copyright ORBIFLY December 2007 - Disclaimer

ORBIFLY MET'MAP TEAM :

Programming & Development : Alexandra Zaïnal
Concept & Development : Baudouin d'Aumeries
Co-Development & Prog : Marc-Olivier Méhu
Technical & hardware support : Manuel Goepfert

Contact : metmap@orbifly.com




SOURCES & CREDITS :

   NOAA       Earth
Advisory